Polaris — JD2797 — position and weather

sailwx.info

Track history (hours):
 
Tides and Currents Weather Stations Pressure Air Temp Water Temp Dewpoint Dewpoint Depression Visibility Wind Speed Wind Dir Waves Ship Positions

Polaris

Last reported at 2014-Sep-01 07:34 UTC. Time now 2014-Sep-01 13:43 UTC.
Position N 35°25' E 139°42'.

Length 26 m.

MMSI: 431000764.

Date/timePositionNaut miles runAvg speedWind from/ knotsBaromVisibWave heightAir tempDewpointWater temp
2014-Sep-01 07:34N 35°25' E 139°42'1313.0
2014-Sep-01 06:33N 35°12' E 139°46'1211.7
2014-Sep-01 05:33N 35°24' E 139°42'4 3.7
2014-Sep-01 04:34N 35°27' E 139°40'0 0.1
2014-Sep-01 03:33N 35°27' E 139°40'0 0.0
2014-Sep-01 02:33N 35°27' E 139°40'0 0.0
2014-Sep-01 01:33N 35°27' E 139°40'0 0.0
2014-Sep-01 00:33N 35°27' E 139°40'10 9.4
2014-Aug-31 23:33N 35°18' E 139°44'2 1.5
2014-Aug-31 22:33N 35°19' E 139°43'6 5.9
2014-Aug-31 21:33N 35°24' E 139°46'4 3.6
2014-Aug-31 20:33N 35°27' E 139°42'2 2.2
2014-Aug-31 19:34N 35°27' E 139°40'0 0.0
2014-Aug-31 18:33N 35°27' E 139°40'0 0.0
2014-Aug-31 17:34N 35°27' E 139°40'0 0.0
2014-Aug-31 16:34N 35°27' E 139°40'0 0.0
2014-Aug-31 15:33N 35°27' E 139°40'0 0.0
2014-Aug-31 14:33N 35°27' E 139°40'1 0.7
2014-Aug-31 13:34N 35°27' E 139°40'1010.3
2014-Aug-31 12:33N 35°18' E 139°45'8 7.6
2014-Aug-31 11:33N 35°10' E 139°47'1211.5
2014-Aug-31 10:33N 35°21' E 139°42'6 6.0
2014-Aug-31 09:33N 35°27' E 139°40'0 0.0
2014-Aug-31 08:33N 35°27' E 139°40'0 0.0
2014-Aug-31 07:33N 35°27' E 139°40'0 0.0
2014-Aug-31 06:33N 35°27' E 139°40'0 0.0
2014-Aug-31 05:33N 35°27' E 139°40'0 0.0
2014-Aug-31 04:33N 35°27' E 139°40'0 0.0
2014-Aug-31 03:33N 35°27' E 139°40'0 0.0
2014-Aug-31 02:33N 35°27' E 139°40'0 0.0
2014-Aug-31 01:33N 35°27' E 139°40'0 0.0
2014-Aug-31 00:33N 35°27' E 139°40'2 1.5
2014-Aug-30 23:34N 35°26' E 139°42'1313.1
2014-Aug-30 22:33N 35°14' E 139°46'9 9.0
2014-Aug-30 21:33N 35°22' E 139°42'5 4.5
2014-Aug-30 20:34N 35°27' E 139°42'2 2.0
2014-Aug-30 19:33N 35°27' E 139°40'0 0.0
2014-Aug-30 18:33N 35°27' E 139°40'0 0.0
2014-Aug-30 17:33N 35°27' E 139°40'0 0.0
2014-Aug-30 16:33N 35°27' E 139°40'0 0.0
2014-Aug-30 15:33N 35°27' E 139°40'0 0.0
2014-Aug-30 14:33N 35°27' E 139°40'0 0.0
2014-Aug-30 13:33N 35°27' E 139°40'3 3.4
2014-Aug-30 12:33N 35°24' E 139°42'1211.9
2014-Aug-30 11:33N 35°12' E 139°46'1312.7
2014-Aug-30 10:33N 35°25' E 139°44'2 1.9
2014-Aug-30 09:33N 35°27' E 139°42'2 2.2
2014-Aug-30 08:33N 35°27' E 139°40'7 7.1
2014-Aug-30 07:33N 35°21' E 139°45'1111.2
2014-Aug-30 06:33N 35°10' E 139°47'10 9.6
2014-Aug-30 05:33N 35°19' E 139°42'8 8.1
2014-Aug-30 04:33N 35°27' E 139°40'0 0.0
2014-Aug-30 03:33N 35°27' E 139°40'0 0.0
2014-Aug-29 03:18N 35°27' E 139°40'2 3.3
2014-Aug-29 02:34N 35°27' E 139°43'1110.7
2014-Aug-29 01:33N 35°16' E 139°46'6 5.8
2014-Aug-29 00:33N 35°10' E 139°47'1312.7
2014-Aug-28 23:31N 35°23' E 139°41'4 0.3
2014-Aug-28 10:11N 35°27' E 139°40'2 3.7
2014-Aug-28 09:34N 35°25' E 139°42'1313.1
2014-Aug-28 08:33N 35°12' E 139°46'1111.0
2014-Aug-28 07:33N 35°23' E 139°42'4 4.4
2014-Aug-28 06:33N 35°27' E 139°40'5 0.2
2014-Aug-27 02:33N 35°25' E 139°46'1010.2
2014-Aug-27 01:33N 35°15' E 139°47'3 3.5
2014-Aug-27 00:33N 35°12' E 139°46'1414.2
2014-Aug-26 23:33N 35°25' E 139°42'2 2.1
2014-Aug-26 22:33N 35°27' E 139°40'1 0.1
2014-Aug-26 04:33N 35°27' E 139°41'1313.3
2014-Aug-26 03:33N 35°14' E 139°46'8 7.7
2014-Aug-26 02:33N 35°21' E 139°42'2 1.8
2014-Aug-26 01:33N 35°23' E 139°43'1 0.7
2014-Aug-26 00:33N 35°23' E 139°44'5 5.3
2014-Aug-25 23:33N 35°18' E 139°45'8 8.2
2014-Aug-25 22:33N 35°10' E 139°48'1212.4
2014-Aug-25 21:33N 35°21' E 139°42'5 0.2
2014-Aug-24 21:23N 35°27' E 139°40'6 7.4
2014-Aug-24 20:33N 35°23' E 139°46'1110.8
2014-Aug-24 19:33N 35°12' E 139°47'4 4.5
2014-Aug-24 18:33N 35°16' E 139°45'1111.1
2014-Aug-24 17:34N 35°27' E 139°40'0 0.0
2014-Aug-23 03:33N 35°27' E 139°40'0 0.0
2014-Aug-23 02:33N 35°27' E 139°40'0 0.0
2014-Aug-23 01:33N 35°27' E 139°40'0 0.0
2014-Aug-23 00:33N 35°27' E 139°40'0 0.4
2014-Aug-22 23:33N 35°27' E 139°40'9 8.9
2014-Aug-22 22:33N 35°19' E 139°44'9 9.0
2014-Aug-22 21:33N 35°10' E 139°47'1212.1
2014-Aug-22 20:33N 35°21' E 139°42'6 5.7
2014-Aug-22 19:33N 35°27' E 139°40'  
Track history (hours):
 
Tides and Currents Weather Stations Pressure Air Temp Water Temp Dewpoint Dewpoint Depression Visibility Wind Speed Wind Dir Waves Ship Positions

Polaris

Last reported at 2014-Sep-01 07:34 UTC. Time now 2014-Sep-01 13:43 UTC.
Position N 35°25' E 139°42'.

Length 26 m.

MMSI: 431000764.

Date/timePositionNaut miles runAvg speedWind from/ knotsBaromVisibWave heightAir tempDewpointWater temp
2014-Sep-01 07:34N 35°25' E 139°42'1313.0
2014-Sep-01 06:33N 35°12' E 139°46'1211.7
2014-Sep-01 05:33N 35°24' E 139°42'4 3.7
2014-Sep-01 04:34N 35°27' E 139°40'0 0.1
2014-Sep-01 03:33N 35°27' E 139°40'0 0.0
2014-Sep-01 02:33N 35°27' E 139°40'0 0.0
2014-Sep-01 01:33N 35°27' E 139°40'0 0.0
2014-Sep-01 00:33N 35°27' E 139°40'10 9.4
2014-Aug-31 23:33N 35°18' E 139°44'2 1.5
2014-Aug-31 22:33N 35°19' E 139°43'6 5.9
2014-Aug-31 21:33N 35°24' E 139°46'4 3.6
2014-Aug-31 20:33N 35°27' E 139°42'2 2.2
2014-Aug-31 19:34N 35°27' E 139°40'0 0.0
2014-Aug-31 18:33N 35°27' E 139°40'0 0.0
2014-Aug-31 17:34N 35°27' E 139°40'0 0.0
2014-Aug-31 16:34N 35°27' E 139°40'0 0.0
2014-Aug-31 15:33N 35°27' E 139°40'0 0.0
2014-Aug-31 14:33N 35°27' E 139°40'1 0.7
2014-Aug-31 13:34N 35°27' E 139°40'1010.3
2014-Aug-31 12:33N 35°18' E 139°45'8 7.6
2014-Aug-31 11:33N 35°10' E 139°47'1211.5
2014-Aug-31 10:33N 35°21' E 139°42'6 6.0
2014-Aug-31 09:33N 35°27' E 139°40'0 0.0
2014-Aug-31 08:33N 35°27' E 139°40'0 0.0
2014-Aug-31 07:33N 35°27' E 139°40'0 0.0
2014-Aug-31 06:33N 35°27' E 139°40'0 0.0
2014-Aug-31 05:33N 35°27' E 139°40'0 0.0
2014-Aug-31 04:33N 35°27' E 139°40'0 0.0
2014-Aug-31 03:33N 35°27' E 139°40'0 0.0
2014-Aug-31 02:33N 35°27' E 139°40'0 0.0
2014-Aug-31 01:33N 35°27' E 139°40'0 0.0
2014-Aug-31 00:33N 35°27' E 139°40'2 1.5
2014-Aug-30 23:34N 35°26' E 139°42'1313.1
2014-Aug-30 22:33N 35°14' E 139°46'9 9.0
2014-Aug-30 21:33N 35°22' E 139°42'5 4.5
2014-Aug-30 20:34N 35°27' E 139°42'2 2.0
2014-Aug-30 19:33N 35°27' E 139°40'0 0.0
2014-Aug-30 18:33N 35°27' E 139°40'0 0.0
2014-Aug-30 17:33N 35°27' E 139°40'0 0.0
2014-Aug-30 16:33N 35°27' E 139°40'0 0.0
2014-Aug-30 15:33N 35°27' E 139°40'0 0.0
2014-Aug-30 14:33N 35°27' E 139°40'0 0.0
2014-Aug-30 13:33N 35°27' E 139°40'3 3.4
2014-Aug-30 12:33N 35°24' E 139°42'1211.9
2014-Aug-30 11:33N 35°12' E 139°46'1312.7
2014-Aug-30 10:33N 35°25' E 139°44'2 1.9
2014-Aug-30 09:33N 35°27' E 139°42'2 2.2
2014-Aug-30 08:33N 35°27' E 139°40'7 7.1
2014-Aug-30 07:33N 35°21' E 139°45'1111.2
2014-Aug-30 06:33N 35°10' E 139°47'10 9.6
2014-Aug-30 05:33N 35°19' E 139°42'8 8.1
2014-Aug-30 04:33N 35°27' E 139°40'0 0.0
2014-Aug-30 03:33N 35°27' E 139°40'0 0.0
2014-Aug-29 03:18N 35°27' E 139°40'2 3.3
2014-Aug-29 02:34N 35°27' E 139°43'1110.7
2014-Aug-29 01:33N 35°16' E 139°46'6 5.8
2014-Aug-29 00:33N 35°10' E 139°47'1312.7
2014-Aug-28 23:31N 35°23' E 139°41'4 0.3
2014-Aug-28 10:11N 35°27' E 139°40'2 3.7
2014-Aug-28 09:34N 35°25' E 139°42'1313.1
2014-Aug-28 08:33N 35°12' E 139°46'1111.0
2014-Aug-28 07:33N 35°23' E 139°42'4 4.4
2014-Aug-28 06:33N 35°27' E 139°40'5 0.2
2014-Aug-27 02:33N 35°25' E 139°46'1010.2
2014-Aug-27 01:33N 35°15' E 139°47'3 3.5
2014-Aug-27 00:33N 35°12' E 139°46'1414.2
2014-Aug-26 23:33N 35°25' E 139°42'2 2.1
2014-Aug-26 22:33N 35°27' E 139°40'1 0.1
2014-Aug-26 04:33N 35°27' E 139°41'1313.3
2014-Aug-26 03:33N 35°14' E 139°46'8 7.7
2014-Aug-26 02:33N 35°21' E 139°42'2 1.8
2014-Aug-26 01:33N 35°23' E 139°43'1 0.7
2014-Aug-26 00:33N 35°23' E 139°44'5 5.3
2014-Aug-25 23:33N 35°18' E 139°45'8 8.2
2014-Aug-25 22:33N 35°10' E 139°48'1212.4
2014-Aug-25 21:33N 35°21' E 139°42'5 0.2
2014-Aug-24 21:23N 35°27' E 139°40'6 7.4
2014-Aug-24 20:33N 35°23' E 139°46'1110.8
2014-Aug-24 19:33N 35°12' E 139°47'4 4.5
2014-Aug-24 18:33N 35°16' E 139°45'1111.1
2014-Aug-24 17:34N 35°27' E 139°40'0 0.0
2014-Aug-23 03:33N 35°27' E 139°40'0 0.0
2014-Aug-23 02:33N 35°27' E 139°40'0 0.0
2014-Aug-23 01:33N 35°27' E 139°40'0 0.0
2014-Aug-23 00:33N 35°27' E 139°40'0 0.4
2014-Aug-22 23:33N 35°27' E 139°40'9 8.9
2014-Aug-22 22:33N 35°19' E 139°44'9 9.0
2014-Aug-22 21:33N 35°10' E 139°47'1212.1
2014-Aug-22 20:33N 35°21' E 139°42'6 5.7
2014-Aug-22 19:33N 35°27' E 139°40'  

Dump ship's entire track history